Buffalo, New York
Current Conditions -  °F | °C
As of 2:54 AM on Monday 24 Nov 2014 (Local Time) from KBUF Reporting Station
Light Rain Light Rain  
Wind Chill: 51°   Ceiling: 9500
Heat Index: 51°   Visibility: 10mi
Dew Point: 46°   Wind: 18mph
Humidity: 83%   Direction: 150°SSE
Pressure: 29.36"   Gusts: 23mph
Location:  42.89°N, 78.88°W
Report Text: KBUF 240754Z 15016G20KT 10SM -RA FEW070 OVC095 11/08 A2936 RMK AO2 PK WND 16026/0719 SLP943 P0002 T01060078
Loading
Personal Weather Stations






























Interactive Weather Map New forecast layout! Learn more

10-Day Weather Forecast

Advertisements
Track Severe Weather on mobile